Time;durP1;ratioP1;P1;durP2;ratioP2;P2;SDS_P1;SDS_P2;PMS_P1;PMS_P2;Temp;Humidity;BMP_temperature;BMP_pressure;BME280_temperature;BME280_humidity;BME280_pressure;Samples;Min_cycle;Max_cycle;Signal;HPM_P1;HPM_P2
2022/09/19 00:00:37;;;;;;;1.48;1.05;;;;;;;18.61;50.05;92772.81;5042004;28;20039;-89
2022/09/19 00:03:03;;;;;;;1.00;0.90;;;;;;;18.60;50.12;92782.28;5068053;27;20035;-89
2022/09/19 00:05:29;;;;;;;1.40;0.90;;;;;;;18.60;49.97;92793.22;5092266;27;20040;-89
2022/09/19 00:07:54;;;;;;;2.25;1.00;;;;;;;18.58;50.09;92791.00;5092460;28;20043;-89
2022/09/19 00:10:19;;;;;;;1.02;0.90;;;;;;;18.61;49.75;92781.03;5075915;28;20029;-90
2022/09/19 00:12:45;;;;;;;0.98;0.80;;;;;;;18.59;49.58;92773.34;5071821;28;20036;-90
2022/09/19 00:15:10;;;;;;;0.90;0.80;;;;;;;18.57;49.99;92788.78;5054195;28;20402;-91
2022/09/19 00:17:36;;;;;;;1.30;1.00;;;;;;;18.56;49.82;92774.34;5096147;28;20603;-89
2022/09/19 00:20:01;;;;;;;1.73;0.98;;;;;;;18.58;49.95;92785.53;5064533;28;20043;-89
2022/09/19 00:22:26;;;;;;;0.80;0.70;;;;;;;18.62;49.76;92793.44;5054874;28;20051;-90
2022/09/19 00:24:52;;;;;;;1.63;0.98;;;;;;;18.58;49.76;92777.31;5054167;28;20043;-88
2022/09/19 00:27:22;;;;;;;1.13;1.00;;;;;;;18.57;49.63;92778.56;5067803;28;20438;-89
2022/09/19 00:29:47;;;;;;;0.90;0.80;;;;;;;18.58;49.66;92768.34;5031581;28;20110;-89
2022/09/19 00:32:15;;;;;;;1.60;1.08;;;;;;;18.53;50.05;92769.94;5034962;28;20270;-88
2022/09/19 00:34:42;;;;;;;1.30;1.00;;;;;;;18.60;49.71;92763.13;5034718;28;20052;-89
2022/09/19 00:37:07;;;;;;;1.25;0.90;;;;;;;18.59;49.83;92761.63;5051582;28;20135;-90
2022/09/19 00:39:33;;;;;;;1.88;0.98;;;;;;;18.59;49.93;92758.88;5059359;28;20404;-90
2022/09/19 00:41:58;;;;;;;1.25;0.90;;;;;;;18.54;49.70;92752.25;5019019;28;20079;-89
2022/09/19 00:44:23;;;;;;;0.73;0.70;;;;;;;18.55;50.27;92758.47;5019109;28;20321;-89
2022/09/19 00:47:06;;;;;;;1.63;0.80;;;;;;;18.58;50.65;92751.94;5069332;28;20499;-89
2022/09/19 00:49:33;;;;;;;0.98;0.90;;;;;;;18.55;49.43;92744.78;5051505;28;20071;-89
2022/09/19 00:52:00;;;;;;;1.10;0.88;;;;;;;18.54;49.25;92740.56;5050256;28;20056;-89
2022/09/19 00:54:31;;;;;;;0.70;0.65;;;;;;;18.54;49.57;92746.03;5053230;28;20558;-89
2022/09/19 00:56:57;;;;;;;1.08;0.93;;;;;;;18.53;49.18;92731.63;5067951;28;20047;-89
2022/09/19 00:59:25;;;;;;;0.98;0.75;;;;;;;18.54;50.04;92730.34;5033921;28;20033;-90
2022/09/19 01:01:53;;;;;;;1.00;0.85;;;;;;;18.55;49.67;92731.09;5047648;28;20165;-89
2022/09/19 01:04:23;;;;;;;1.00;0.70;;;;;;;18.55;49.28;92714.66;5090763;28;20097;-90
2022/09/19 01:07:20;;;;;;;1.42;0.80;;;;;;;18.55;49.94;92733.81;5090570;28;20035;-89
2022/09/19 01:09:51;;;;;;;1.80;0.95;;;;;;;18.52;49.58;92719.19;5107028;28;20127;-88
2022/09/19 01:12:52;;;;;;;0.98;0.70;;;;;;;18.54;49.62;92724.13;5069654;27;20229;-89
2022/09/19 01:15:24;;;;;;;0.93;0.82;;;;;;;18.54;49.63;92733.09;5017421;28;20037;-89
2022/09/19 01:17:51;;;;;;;0.98;0.70;;;;;;;18.56;49.76;92727.81;5003765;28;20053;-90
2022/09/19 01:20:19;;;;;;;0.73;0.52;;;;;;;18.55;49.43;92739.31;5008609;28;20149;-90
2022/09/19 01:23:22;;;;;;;1.27;0.70;;;;;;;18.55;49.78;92739.31;5009622;28;20316;-90
2022/09/19 01:26:10;;;;;;;0.90;0.77;;;;;;;18.54;49.68;92737.81;5024682;28;20529;-91
2022/09/19 01:28:47;;;;;;;1.33;0.75;;;;;;;18.53;49.65;92742.56;5009351;28;20124;-90
2022/09/19 01:31:18;;;;;;;1.23;0.80;;;;;;;18.52;49.67;92743.09;5008629;28;20041;-89
2022/09/19 01:34:05;;;;;;;0.70;0.68;;;;;;;18.53;50.30;92753.50;5025378;28;20109;-89
2022/09/19 01:36:39;;;;;;;0.70;0.70;;;;;;;18.54;49.50;92759.72;5041405;28;20052;-91
2022/09/19 01:39:04;;;;;;;0.88;0.70;;;;;;;18.53;49.49;92761.72;5029902;28;20192;-90
2022/09/19 01:41:30;;;;;;;0.70;0.70;;;;;;;18.53;49.43;92760.97;5057132;28;20041;-89
2022/09/19 01:44:02;;;;;;;0.82;0.65;;;;;;;18.51;49.70;92761.50;5045933;28;20033;-90
2022/09/19 01:46:31;;;;;;;0.60;0.60;;;;;;;18.54;49.90;92774.16;5014395;28;21042;-91
2022/09/19 01:49:07;;;;;;;1.02;0.90;;;;;;;18.52;49.42;92767.72;5029209;28;20067;-89
2022/09/19 01:51:45;;;;;;;0.60;0.60;;;;;;;18.54;49.78;92768.66;5005883;28;20044;-90
2022/09/19 01:54:17;;;;;;;0.85;0.70;;;;;;;18.53;49.65;92753.50;5066033;28;20089;-89
2022/09/19 01:57:14;;;;;;;0.68;0.60;;;;;;;18.53;49.81;92750.78;5049053;28;20036;-91
2022/09/19 01:59:51;;;;;;;0.60;0.60;;;;;;;18.52;49.85;92759.50;5049894;28;20032;-89
2022/09/19 02:02:33;;;;;;;0.85;0.80;;;;;;;18.52;49.71;92756.78;5048298;28;20141;-90
2022/09/19 02:05:34;;;;;;;0.98;0.82;;;;;;;18.51;49.43;92766.97;5066881;28;20036;-90
2022/09/19 02:08:10;;;;;;;0.63;0.60;;;;;;;18.49;49.41;92770.25;5083133;28;20098;-90
2022/09/19 02:10:44;;;;;;;0.80;0.73;;;;;;;18.52;49.98;92768.47;5083445;28;20066;-89
2022/09/19 02:13:11;;;;;;;0.60;0.50;;;;;;;18.50;49.78;92788.16;5049766;28;20043;-89
2022/09/19 02:15:37;;;;;;;0.75;0.60;;;;;;;18.53;49.66;92780.88;5043910;28;20047;-90
2022/09/19 02:18:08;;;;;;;1.73;0.73;;;;;;;18.53;49.88;92782.88;5064954;28;20826;-90
2022/09/19 02:20:34;;;;;;;0.75;0.75;;;;;;;18.54;49.74;92787.09;5051684;28;20036;-91
2022/09/19 02:23:06;;;;;;;0.75;0.60;;;;;;;18.54;49.89;92784.34;5048084;28;20063;-90
2022/09/19 02:25:33;;;;;;;0.60;0.57;;;;;;;18.54;50.02;92776.16;5020869;28;20102;-89
2022/09/19 02:28:03;;;;;;;0.82;0.60;;;;;;;18.51;49.37;92791.63;5035013;28;20039;-90
2022/09/19 02:30:28;;;;;;;0.73;0.60;;;;;;;18.50;49.33;92804.56;5067572;28;20462;-90
2022/09/19 02:32:54;;;;;;;0.43;0.43;;;;;;;18.53;49.59;92811.00;5051640;28;20028;-90
2022/09/19 02:35:34;;;;;;;0.70;0.63;;;;;;;18.52;49.40;92809.50;5084719;28;20138;-90
2022/09/19 02:38:04;;;;;;;0.50;0.47;;;;;;;18.54;49.37;92811.72;5051735;28;20039;-90
2022/09/19 02:40:36;;;;;;;0.75;0.60;;;;;;;18.50;49.21;92812.78;5071016;28;20063;-91
2022/09/19 02:43:14;;;;;;;0.50;0.50;;;;;;;18.51;49.72;92816.25;5061791;28;20126;-91
2022/09/19 02:45:50;;;;;;;0.77;0.60;;;;;;;18.50;49.34;92818.25;5051517;28;20047;-90
2022/09/19 02:48:15;;;;;;;0.60;0.60;;;;;;;18.50;49.12;92817.50;5051050;28;20214;-89
2022/09/19 02:50:52;;;;;;;1.25;0.60;;;;;;;18.49;49.64;92832.47;5085915;28;20056;-90
2022/09/19 02:53:20;;;;;;;0.88;0.52;;;;;;;18.50;49.05;92831.19;5067254;28;20151;-89
2022/09/19 02:55:50;;;;;;;0.65;0.65;;;;;;;18.49;49.21;92824.97;5068136;28;20063;-90
2022/09/19 02:58:16;;;;;;;0.85;0.52;;;;;;;18.51;49.08;92821.72;5040208;28;20040;-89
2022/09/19 03:00:46;;;;;;;0.50;0.50;;;;;;;18.50;49.59;92822.97;5057778;28;20437;-90
2022/09/19 03:06:00;;;;;;;0.70;0.60;;;;;;;18.51;49.06;92832.69;5052708;28;20039;-90
2022/09/19 03:08:26;;;;;;;0.50;0.50;;;;;;;18.48;49.11;92842.66;5048280;28;20364;-89
2022/09/19 03:10:53;;;;;;;0.80;0.57;;;;;;;18.48;49.29;92844.66;5046181;28;20032;-89
2022/09/19 03:13:24;;;;;;;0.60;0.60;;;;;;;18.52;49.12;92838.88;5050425;28;20024;-91
2022/09/19 03:15:56;;;;;;;;;;;;;;;18.53;49.43;92848.56;5058818;28;20036;-90
2022/09/19 03:18:22;;;;;;;0.50;0.50;;;;;;;18.49;49.47;92848.88;5078493;28;19920;-90
2022/09/19 03:20:55;;;;;;;0.43;0.43;;;;;;;18.47;48.97;92856.88;5069336;28;20081;-89
2022/09/19 03:23:27;;;;;;;0.70;0.50;;;;;;;18.47;49.25;92854.13;5080973;28;20495;-89
2022/09/19 03:25:52;;;;;;;1.13;0.60;;;;;;;18.47;49.34;92851.41;5065093;28;20037;-90
2022/09/19 03:28:19;;;;;;;0.65;0.60;;;;;;;18.46;49.03;92850.66;5042734;28;20051;-90
2022/09/19 03:30:46;;;;;;;0.30;0.30;;;;;;;18.46;49.30;92860.88;5051349;28;20041;-89
2022/09/19 03:33:17;;;;;;;1.17;0.52;;;;;;;18.45;48.59;92848.44;5085941;28;20040;-89
2022/09/19 03:35:43;;;;;;;0.80;0.70;;;;;;;18.46;49.39;92850.66;5054285;28;20044;-90
2022/09/19 03:38:09;;;;;;;0.70;0.60;;;;;;;18.50;50.17;92853.84;5052391;28;20040;-90
2022/09/19 03:40:34;;;;;;;0.60;0.60;;;;;;;18.53;50.12;92854.03;5059890;28;20037;-89
2022/09/19 03:43:00;;;;;;;3.30;0.47;;;;;;;18.52;50.05;92866.25;5052446;28;20056;-90
2022/09/19 03:45:25;;;;;;;0.68;0.57;;;;;;;18.50;49.57;92864.78;5034642;28;20029;-88
2022/09/19 03:47:51;;;;;;;0.30;0.30;;;;;;;18.50;49.64;92875.00;5045851;28;20040;-89
2022/09/19 03:50:17;;;;;;;0.90;0.63;;;;;;;18.48;49.58;92885.72;5051522;28;20055;-90
2022/09/19 03:52:44;;;;;;;4.47;1.10;;;;;;;18.50;48.98;92872.25;5054277;28;20033;-88
2022/09/19 03:55:09;;;;;;;1.92;0.50;;;;;;;18.54;49.78;92891.09;5037439;28;20040;-87
2022/09/19 03:57:34;;;;;;;12.25;1.63;;;;;;;18.50;49.20;92880.47;5075021;28;20032;-91
2022/09/19 04:00:00;;;;;;;3.30;0.80;;;;;;;18.53;49.88;92886.91;5075709;28;20036;-90
2022/09/19 04:02:26;;;;;;;2.22;0.70;;;;;;;18.53;49.55;92882.16;5051674;28;20033;-88
2022/09/19 04:04:53;;;;;;;2.17;0.40;;;;;;;18.50;49.10;92886.69;5026944;28;20025;-89
2022/09/19 04:07:19;;;;;;;6.43;0.80;;;;;;;18.46;49.83;92894.44;5015794;28;20045;-89
2022/09/19 04:09:45;;;;;;;12.07;1.17;;;;;;;18.38;46.82;92901.09;5032155;28;20040;-87
2022/09/19 04:12:12;;;;;;;6.10;0.80;;;;;;;18.32;45.44;92890.22;5015184;28;20041;-89
2022/09/19 04:14:38;;;;;;;1.80;0.65;;;;;;;18.28;44.48;92895.25;5022080;28;20442;-89
2022/09/19 04:17:05;;;;;;;0.77;0.43;;;;;;;18.30;44.71;92895.47;5077794;28;20036;-89
2022/09/19 04:19:31;;;;;;;7.65;0.90;;;;;;;18.28;45.14;92903.47;5051790;28;20047;-89
2022/09/19 04:22:01;;;;;;;6.47;1.17;;;;;;;18.31;45.37;92901.69;5064611;28;20036;-91
2022/09/19 04:24:29;;;;;;;3.40;0.82;;;;;;;18.33;45.24;92904.63;5035773;28;20048;-89
2022/09/19 04:26:54;;;;;;;2.35;0.82;;;;;;;18.31;45.75;92904.44;5059840;28;20740;-90
2022/09/19 04:29:20;;;;;;;13.55;1.60;;;;;;;18.33;47.05;92908.13;5068124;28;20096;-91
2022/09/19 04:31:46;;;;;;;13.25;2.25;;;;;;;18.39;47.63;92908.03;5055844;28;20069;-90
2022/09/19 04:34:14;;;;;;;179.95;145.35;;;;;;;18.44;48.36;92901.72;5065316;28;20040;-87
2022/09/19 04:36:40;;;;;;;44.92;31.08;;;;;;;18.42;49.06;92918.66;5065512;28;20040;-88
2022/09/19 04:39:06;;;;;;;57.78;48.08;;;;;;;18.45;49.15;92903.19;5057141;28;20045;-88
2022/09/19 04:41:35;;;;;;;33.88;13.65;;;;;;;18.46;48.77;92912.88;5059850;28;20047;-86
2022/09/19 04:44:01;;;;;;;46.20;34.30;;;;;;;18.48;48.68;92919.31;5065746;28;20124;-87
2022/09/19 04:46:27;;;;;;;35.03;17.70;;;;;;;18.47;48.63;92928.03;5065880;28;20115;-87
2022/09/19 04:48:54;;;;;;;27.42;12.85;;;;;;;18.48;48.82;92935.72;5067306;28;20035;-90
2022/09/19 04:51:20;;;;;;;38.90;15.75;;;;;;;18.47;48.93;92928.78;5050743;28;20556;-91
2022/09/19 04:53:46;;;;;;;38.67;15.90;;;;;;;18.49;48.87;92947.41;5057521;28;20035;-90
2022/09/19 04:56:11;;;;;;;102.13;47.45;;;;;;;18.46;48.89;92943.72;5052844;28;20494;-87
2022/09/19 04:58:40;;;;;;;73.45;24.20;;;;;;;18.51;48.96;92947.63;5056472;28;20036;-90
2022/09/19 05:01:06;;;;;;;67.35;25.45;;;;;;;18.52;48.65;92948.38;5070774;28;20033;-87
2022/09/19 05:03:31;;;;;;;93.80;29.67;;;;;;;18.50;48.86;92951.63;5046907;28;20082;-89
2022/09/19 05:05:58;;;;;;;80.70;29.67;;;;;;;18.53;49.05;92952.59;5045579;28;20078;-89
2022/09/19 05:08:26;;;;;;;81.05;28.20;;;;;;;18.53;48.87;92945.13;5034202;28;20036;-90
2022/09/19 05:10:55;;;;;;;82.35;31.92;;;;;;;18.53;48.80;92953.31;5067277;28;20028;-91
2022/09/19 05:13:22;;;;;;;79.85;29.63;;;;;;;18.52;48.85;92957.31;5071899;28;20434;-88
2022/09/19 05:15:51;;;;;;;83.80;29.10;;;;;;;18.51;48.91;92950.38;5074599;28;20648;-87
2022/09/19 05:18:21;;;;;;;68.95;24.23;;;;;;;18.53;48.09;92955.31;5089009;28;20041;-87
2022/09/19 05:20:47;;;;;;;67.97;23.40;;;;;;;18.47;47.54;92950.66;5082743;27;20048;-88
2022/09/19 05:23:13;;;;;;;67.00;20.38;;;;;;;18.45;47.46;92957.91;5050597;28;20355;-89
2022/09/19 05:25:39;;;;;;;65.65;23.25;;;;;;;18.49;47.83;92955.63;5080374;28;20067;-89
2022/09/19 05:28:06;;;;;;;46.22;20.23;;;;;;;18.43;47.33;92958.44;5055596;28;20039;-90
2022/09/19 05:30:35;;;;;;;47.10;17.60;;;;;;;18.41;47.03;92960.22;5075818;28;20052;-90
2022/09/19 05:33:02;;;;;;;64.90;21.90;;;;;;;18.44;47.39;92970.13;5037562;28;20089;-90
2022/09/19 05:35:27;;;;;;;58.22;23.95;;;;;;;18.44;47.68;92959.19;5067098;28;20044;-91
2022/09/19 05:37:54;;;;;;;65.25;23.38;;;;;;;18.43;48.23;92960.44;5054778;28;20037;-89
2022/09/19 05:40:19;;;;;;;52.97;23.08;;;;;;;18.42;48.52;92948.00;5032992;28;20500;-90
2022/09/19 05:42:48;;;;;;;52.85;22.85;;;;;;;18.48;48.67;92959.63;5085089;28;20102;-88
2022/09/19 05:45:14;;;;;;;55.08;24.77;;;;;;;18.45;48.59;92974.34;5032835;28;20556;-89
2022/09/19 05:47:40;;;;;;;118.80;37.22;;;;;;;18.45;48.62;92969.59;5059640;28;20152;-91
2022/09/19 05:50:08;;;;;;;147.48;57.88;;;;;;;18.45;48.49;92975.09;5052278;28;20048;-90
2022/09/19 05:55:21;;;;;;;160.00;62.30;;;;;;;18.49;48.72;92981.00;5074426;28;20094;-88
2022/09/19 05:57:57;;;;;;;183.85;78.00;;;;;;;18.49;48.60;92981.00;5060211;28;20036;-91
2022/09/19 06:00:23;;;;;;;186.68;80.38;;;;;;;18.48;48.85;92993.19;5055030;28;20048;-89
2022/09/19 06:02:57;;;;;;;217.57;70.68;;;;;;;18.48;49.06;92984.25;5068557;28;20383;-93
2022/09/19 06:05:23;;;;;;;221.77;81.93;;;;;;;18.52;49.08;92984.69;5055826;28;20036;-90
2022/09/19 06:07:51;;;;;;;209.70;75.35;;;;;;;18.54;49.56;92976.69;5072727;28;20040;-88
2022/09/19 06:10:17;;;;;;;175.57;65.05;;;;;;;18.57;49.26;92977.66;5063646;28;20044;-90
2022/09/19 06:12:43;;;;;;;179.63;65.28;;;;;;;18.58;49.09;92984.59;5037950;28;20033;-88
2022/09/19 06:15:13;;;;;;;183.02;71.72;;;;;;;18.58;49.01;92985.34;5094929;28;20055;-90
2022/09/19 06:17:39;;;;;;;142.93;62.07;;;;;;;18.58;49.01;92987.34;5087349;28;20051;-89
2022/09/19 06:20:05;;;;;;;132.82;61.42;;;;;;;18.58;48.81;92992.81;5066364;28;20548;-89
2022/09/19 06:22:30;;;;;;;158.48;72.82;;;;;;;18.56;48.22;92992.59;5054225;28;20048;-90
2022/09/19 06:24:56;;;;;;;89.72;32.97;;;;;;;18.50;46.56;92979.75;5046161;28;20051;-89
2022/09/19 06:27:21;;;;;;;97.72;39.17;;;;;;;18.51;46.37;92994.16;5055552;28;20052;-90
2022/09/19 06:29:48;;;;;;;82.97;35.55;;;;;;;18.49;46.95;92991.94;5073478;28;20037;-89
2022/09/19 06:32:14;;;;;;;102.18;40.67;;;;;;;18.50;46.91;93014.56;5059873;28;20044;-89
2022/09/19 06:34:40;;;;;;;99.53;39.95;;;;;;;18.51;47.57;93002.38;5071244;28;20123;-89
2022/09/19 06:37:05;;;;;;;124.07;54.33;;;;;;;18.51;48.25;93005.09;5093606;28;20454;-89
2022/09/19 06:39:31;;;;;;;138.40;54.22;;;;;;;18.52;47.99;93008.59;5053061;28;20372;-90
2022/09/19 06:41:56;;;;;;;141.32;61.88;;;;;;;18.50;48.08;93012.59;5067217;28;20758;-89
2022/09/19 06:44:23;;;;;;;139.57;61.90;;;;;;;18.53;48.14;93012.81;5030947;28;21080;-91
2022/09/19 06:46:49;;;;;;;148.38;65.20;;;;;;;18.52;48.09;93005.84;5037852;28;20026;-88
2022/09/19 06:49:14;;;;;;;143.50;62.30;;;;;;;18.53;48.25;93008.06;5066156;28;20032;-92
2022/09/19 06:51:41;;;;;;;144.23;59.78;;;;;;;18.53;48.13;93012.81;5052434;28;20040;-90
2022/09/19 06:54:06;;;;;;;144.18;62.22;;;;;;;18.52;48.25;93014.81;5074098;28;20044;-89
2022/09/19 06:56:32;;;;;;;148.27;62.22;;;;;;;18.54;47.65;93015.03;5053989;28;20033;-89
2022/09/19 06:58:57;;;;;;;121.22;57.65;;;;;;;18.54;48.21;93020.50;5066224;28;20044;-89
2022/09/19 07:01:23;;;;;;;132.85;57.75;;;;;;;18.58;48.31;93020.94;5033594;28;20036;-88
2022/09/19 07:03:49;;;;;;;143.00;64.07;;;;;;;18.56;48.46;93037.13;5051997;28;20070;-89
2022/09/19 07:06:15;;;;;;;142.55;61.67;;;;;;;18.56;48.48;93034.41;5032852;28;20037;-89
2022/09/19 07:08:44;;;;;;;143.15;61.90;;;;;;;18.58;48.60;93042.09;5081295;28;20036;-89
2022/09/19 07:11:09;;;;;;;120.57;56.05;;;;;;;18.55;48.65;93034.91;5036820;28;20044;-89
2022/09/19 07:13:35;;;;;;;116.10;55.22;;;;;;;18.52;48.34;93042.16;5059745;28;20219;-90
2022/09/19 07:16:04;;;;;;;119.60;54.95;;;;;;;18.55;48.38;93049.34;5082321;28;20093;-85
2022/09/19 07:18:30;;;;;;;110.63;54.15;;;;;;;18.55;48.49;93034.91;5096191;28;20100;-87
2022/09/19 07:20:58;;;;;;;134.20;65.85;;;;;;;18.57;48.23;93051.56;5067484;28;20059;-88
2022/09/19 07:23:24;;;;;;;147.73;63.85;;;;;;;18.55;48.19;93065.03;5069119;28;20067;-88
2022/09/19 07:25:49;;;;;;;138.70;68.03;;;;;;;18.57;48.89;93063.25;5052074;28;20063;-87
2022/09/19 07:28:16;;;;;;;124.63;63.20;;;;;;;18.56;48.45;93067.25;5051627;28;20532;-88
2022/09/19 07:30:43;;;;;;;125.80;61.22;;;;;;;18.55;48.66;93079.47;5039091;28;20044;-87
2022/09/19 07:33:09;;;;;;;119.65;61.15;;;;;;;18.57;48.69;93084.41;5091929;28;20555;-88
2022/09/19 07:35:35;;;;;;;134.75;65.25;;;;;;;18.56;48.59;93085.66;5041756;28;20064;-88
2022/09/19 07:38:02;;;;;;;142.38;62.97;;;;;;;18.58;48.75;93091.38;5050629;28;20045;-89
2022/09/19 07:40:28;;;;;;;117.50;59.30;;;;;;;18.55;48.71;93087.66;5055196;28;20044;-88
2022/09/19 07:42:58;;;;;;;124.07;58.35;;;;;;;18.55;49.11;93100.63;5058727;28;20044;-89
2022/09/19 07:45:24;;;;;;;121.40;57.92;;;;;;;18.58;48.89;93103.06;5063886;28;20089;-89
2022/09/19 07:47:49;;;;;;;104.80;52.40;;;;;;;18.57;48.69;93106.31;5049869;28;20028;-91
2022/09/19 07:50:17;;;;;;;101.57;52.42;;;;;;;18.56;49.18;93113.03;5053601;28;20502;-89
2022/09/19 07:52:46;;;;;;;100.13;53.28;;;;;;;18.57;49.02;93118.00;5043452;28;20087;-89
2022/09/19 07:55:13;;;;;;;174.45;61.22;;;;;;;18.58;48.87;93118.75;5057705;28;20495;-90
2022/09/19 07:57:38;;;;;;;168.35;67.13;;;;;;;18.58;49.21;93116.75;5079503;28;20478;-89
2022/09/19 08:00:06;;;;;;;174.55;71.88;;;;;;;18.58;48.88;93121.47;5084003;28;20197;-88
2022/09/19 08:02:32;;;;;;;160.32;72.05;;;;;;;18.55;49.34;93109.56;5053499;28;20036;-87
2022/09/19 08:04:58;;;;;;;187.60;72.70;;;;;;;18.58;49.29;93116.75;5083021;28;20038;-89
2022/09/19 08:07:24;;;;;;;152.93;69.97;;;;;;;18.58;49.43;93121.47;5031534;28;20044;-89
2022/09/19 08:09:49;;;;;;;173.13;72.20;;;;;;;18.63;48.80;93131.63;5038166;28;20037;-89
2022/09/19 08:12:15;;;;;;;142.75;64.95;;;;;;;18.59;49.01;93134.69;5057637;28;20063;-89
2022/09/19 08:14:42;;;;;;;141.07;66.18;;;;;;;18.60;49.02;93138.91;5039778;28;20041;-89
2022/09/19 08:17:07;;;;;;;146.70;67.00;;;;;;;18.63;49.34;93137.84;5035838;28;20033;-85
2022/09/19 08:19:33;;;;;;;136.15;62.30;;;;;;;18.63;48.91;93137.09;5047142;28;20028;-89
2022/09/19 08:21:59;;;;;;;136.82;62.25;;;;;;;18.64;49.26;93141.31;5069872;28;20547;-89
2022/09/19 08:24:24;;;;;;;132.50;59.97;;;;;;;18.63;49.26;93145.31;5057209;28;20036;-88
2022/09/19 08:26:51;;;;;;;112.00;54.72;;;;;;;18.62;49.26;93143.84;5074042;28;20044;-90
2022/09/19 08:29:16;;;;;;;136.80;63.42;;;;;;;18.65;49.24;93151.75;5067576;28;20036;-88
2022/09/19 08:31:41;;;;;;;123.20;60.72;;;;;;;18.65;49.19;93149.00;5068553;28;20098;-89
2022/09/19 08:34:08;;;;;;;116.07;57.22;;;;;;;18.64;49.30;93149.53;5069211;28;20067;-89
2022/09/19 08:36:36;;;;;;;118.53;58.08;;;;;;;18.65;49.52;93153.75;5055021;28;20040;-89
2022/09/19 08:39:02;;;;;;;119.38;55.22;;;;;;;18.66;49.27;93155.22;5035074;28;20069;-89
2022/09/19 08:41:47;;;;;;;114.75;55.58;;;;;;;18.65;49.38;93162.69;5067623;28;20040;-91
2022/09/19 08:44:22;;;;;;;113.13;52.60;;;;;;;18.61;49.00;93170.50;5071688;28;20868;-89
2022/09/19 08:46:59;;;;;;;84.25;32.80;;;;;;;18.55;47.71;93166.31;5064112;28;20495;-88
2022/09/19 08:49:31;;;;;;;106.38;41.05;;;;;;;18.53;47.54;93177.78;5068034;28;20037;-88
2022/09/19 08:52:18;;;;;;;107.18;52.35;;;;;;;18.58;47.90;93178.97;5033717;28;20491;-88
2022/09/19 08:54:44;;;;;;;121.72;47.47;;;;;;;18.57;47.91;93174.75;5058441;28;20041;-88
2022/09/19 08:57:17;;;;;;;126.00;57.33;;;;;;;18.56;47.89;93184.97;5054659;28;20627;-90
2022/09/19 08:59:42;;;;;;;197.50;94.00;;;;;;;18.63;48.41;93189.13;5068901;28;20242;-88
2022/09/19 09:02:16;;;;;;;231.63;121.47;;;;;;;18.60;48.43;93187.44;5090689;28;20027;-89
2022/09/19 09:04:42;;;;;;;241.05;129.55;;;;;;;18.63;48.59;93191.84;5098636;28;20499;-88
2022/09/19 09:07:27;;;;;;;227.07;118.00;;;;;;;18.61;48.66;93191.66;5049085;28;20072;-90
2022/09/19 09:10:31;;;;;;;205.35;113.43;;;;;;;18.62;48.53;93198.63;5062470;28;20064;-86
2022/09/19 09:13:18;;;;;;;208.70;115.70;;;;;;;18.63;48.87;93200.06;5041682;28;20040;-89
2022/09/19 09:15:49;;;;;;;134.18;71.35;;;;;;;18.61;48.29;93203.34;5081515;28;20070;-88
2022/09/19 09:18:40;;;;;;;130.82;74.32;;;;;;;18.57;48.61;93210.34;5069272;28;20097;-87
2022/09/19 09:21:25;;;;;;;145.32;75.93;;;;;;;18.58;48.62;93198.88;5051708;28;20060;-87
2022/09/19 09:23:55;;;;;;;157.02;78.45;;;;;;;18.59;48.35;93205.09;5073655;28;20049;-90
2022/09/19 09:26:23;;;;;;;149.65;79.70;;;;;;;18.60;48.71;93207.34;5061249;28;20063;-87
2022/09/19 09:29:01;;;;;;;157.23;81.65;;;;;;;18.62;48.69;93212.31;5078709;28;20123;-88
2022/09/19 09:31:37;;;;;;;177.65;84.43;;;;;;;18.64;49.15;93207.03;5086048;28;20541;-88
2022/09/19 09:34:07;;;;;;;143.50;80.10;;;;;;;18.63;48.57;93208.28;5064440;28;20052;-89
2022/09/19 09:36:42;;;;;;;160.68;90.78;;;;;;;18.64;48.73;93207.75;5053096;28;20131;-88
2022/09/19 09:39:16;;;;;;;168.13;86.10;;;;;;;18.63;49.08;93203.53;5045040;28;20113;-89
2022/09/19 09:41:47;;;;;;;220.38;112.93;;;;;;;18.65;48.91;93209.25;5054185;28;20063;-89
2022/09/19 09:44:13;;;;;;;227.38;109.90;;;;;;;18.65;48.98;93198.28;5061291;28;20337;-91
2022/09/19 09:46:53;;;;;;;256.13;125.35;;;;;;;18.66;49.17;93212.72;5070744;28;20098;-88
2022/09/19 09:49:22;;;;;;;232.15;108.88;;;;;;;18.62;49.38;93207.53;5085090;27;20028;-89
2022/09/19 09:52:10;;;;;;;221.40;102.95;;;;;;;18.62;49.31;93218.50;5050291;28;20036;-90
2022/09/19 09:58:09;;;;;;;274.52;143.07;;;;;;;18.65;49.11;93228.41;5060843;28;20105;-88
2022/09/19 10:03:35;;;;;;;241.77;123.53;;;;;;;18.68;49.69;93224.66;5074476;28;20581;-87
2022/09/19 10:06:23;;;;;;;265.73;125.90;;;;;;;18.68;49.36;93234.84;5085244;28;20051;-88
2022/09/19 10:09:01;;;;;;;223.57;121.20;;;;;;;18.67;49.51;93238.84;5086287;28;20143;-87
2022/09/19 10:11:51;;;;;;;213.88;116.05;;;;;;;18.64;49.57;93229.66;5067021;28;20991;-88
2022/09/19 10:14:22;;;;;;;219.70;120.28;;;;;;;18.69;49.59;93231.59;5082223;28;20457;-88
2022/09/19 10:16:48;;;;;;;226.60;129.27;;;;;;;18.68;49.39;93246.56;5081783;28;20349;-87
2022/09/19 10:19:25;;;;;;;200.80;113.40;;;;;;;18.70;49.46;93233.09;5069004;28;20067;-87
2022/09/19 10:21:52;;;;;;;177.68;101.60;;;;;;;18.69;49.72;93244.56;5066484;28;20045;-88
2022/09/19 10:24:50;;;;;;;194.38;110.03;;;;;;;18.69;49.71;93239.81;5054861;28;20040;-88
2022/09/19 10:27:23;;;;;;;196.90;101.85;;;;;;;18.74;49.56;93251.97;5064430;28;20044;-87
2022/09/19 10:29:51;;;;;;;179.30;100.40;;;;;;;18.72;49.42;93252.47;5064131;28;20032;-90
2022/09/19 10:32:19;;;;;;;236.48;153.68;;;;;;;18.72;49.70;93259.94;5049414;28;20051;-88
2022/09/19 10:34:44;;;;;;;499.33;381.25;;;;;;;18.72;49.56;93257.22;5048895;28;20505;-87
2022/09/19 10:37:14;;;;;;;246.13;159.40;;;;;;;18.74;49.61;93260.91;5065465;28;20477;-88
2022/09/19 10:39:44;;;;;;;164.20;96.55;;;;;;;18.74;49.75;93260.19;5068219;28;20107;-88
2022/09/19 10:42:37;;;;;;;142.63;89.68;;;;;;;18.72;49.58;93276.38;5060089;28;20642;-87
2022/09/19 10:45:24;;;;;;;150.73;88.40;;;;;;;18.73;49.72;93272.38;5053700;28;20094;-87
2022/09/19 10:47:55;;;;;;;124.60;77.18;;;;;;;18.69;49.54;93271.94;5054470;28;20395;-88
2022/09/19 10:50:21;;;;;;;131.40;75.05;;;;;;;18.69;49.21;93277.41;5054580;28;20059;-88
2022/09/19 10:52:47;;;;;;;131.80;76.07;;;;;;;18.70;49.55;93278.91;5069488;28;20056;-87
2022/09/19 10:55:15;;;;;;;119.90;70.80;;;;;;;18.70;49.73;93281.63;5067163;28;20613;-87
2022/09/19 10:57:44;;;;;;;205.45;84.70;;;;;;;18.69;49.59;93285.63;5053567;28;20115;-89
2022/09/19 11:00:29;;;;;;;214.13;89.75;;;;;;;18.70;49.72;93285.13;5053190;28;20033;-88
2022/09/19 11:03:17;;;;;;;185.75;90.65;;;;;;;18.73;49.57;93291.56;5048279;28;20538;-86
2022/09/19 11:05:42;;;;;;;191.93;99.28;;;;;;;18.72;49.43;93285.34;5082575;28;20040;-86
2022/09/19 11:08:44;;;;;;;205.38;106.38;;;;;;;18.71;49.65;93291.31;5056401;28;20560;-88
2022/09/19 11:11:47;;;;;;;238.55;118.90;;;;;;;18.71;49.57;93291.31;5048984;28;20156;-86
2022/09/19 11:14:17;;;;;;;272.45;133.93;;;;;;;18.75;49.38;93302.75;5035705;28;20045;-87
2022/09/19 11:17:21;;;;;;;247.82;136.48;;;;;;;18.71;49.71;93300.28;5025858;28;20033;-87
2022/09/19 11:20:27;;;;;;;309.38;172.02;;;;;;;18.73;49.73;93313.47;5049022;28;20049;-86
2022/09/19 11:23:19;;;;;;;323.65;188.20;;;;;;;18.72;49.71;93311.97;5025564;28;20052;-88
2022/09/19 11:26:06;;;;;;;300.08;169.93;;;;;;;18.72;49.56;93307.25;5035382;28;20037;-88
2022/09/19 11:28:43;;;;;;;220.15;118.70;;;;;;;18.71;49.51;93315.97;5016347;28;20048;-88
2022/09/19 11:31:33;;;;;;;257.08;144.07;;;;;;;18.71;49.81;93316.72;5031724;28;20048;-88
2022/09/19 11:34:03;;;;;;;253.97;142.27;;;;;;;18.70;49.61;93317.22;5049465;28;20064;-90
2022/09/19 11:36:46;;;;;;;263.20;143.75;;;;;;;18.74;49.80;93312.22;4997627;28;20309;-89
2022/09/19 11:39:34;;;;;;;264.50;138.27;;;;;;;18.70;49.86;93311.75;5032007;28;20527;-87
2022/09/19 11:42:21;;;;;;;249.63;126.75;;;;;;;18.70;49.63;93312.50;5038883;28;20397;-85
2022/09/19 11:45:10;;;;;;;241.52;124.43;;;;;;;18.71;49.65;93319.44;5049760;28;20048;-87
2022/09/19 11:48:00;;;;;;;236.35;121.47;;;;;;;18.71;50.17;93316.72;5051664;28;20036;-86